Crows Landing, California
Current Conditions -  °F | °C
As of 10:53 AM on Tuesday 21 Oct 2014 (Local Time) from KMOD Reporting Station
Clear Clear  
Wind Chill: 64°   Ceiling: Unl
Heat Index: 64°   Visibility: 10mi
Dew Point: 43°   Wind: 15mph
Humidity: 46%   Direction: 320°NW
Pressure: 30.07"   Gusts: NA
Location:  37.39°N, 121.07°W
Report Text: KMOD 211753Z 32013KT 10SM CLR 18/06 A3007 RMK AO2 SLP182 T01780061 10178 20100 58000
Loading
Personal Weather Stations






























Interactive Weather Map
Tropical Storm Tracking
New forecast layout! Learn more

10-Day Weather Forecast

Advertisements
Track Severe Weather on mobile